sensor_id;sensor_type;location;lat;lon;timestamp;temperature;humidity
31747;DHT22;18319;48.974;8.462;2023-01-13T00:02:15;11.10;99.90
31747;DHT22;18319;48.974;8.462;2023-01-13T00:04:41;11.10;99.90
31747;DHT22;18319;48.974;8.462;2023-01-13T00:07:08;11.00;99.90
31747;DHT22;18319;48.974;8.462;2023-01-13T00:09:37;11.10;99.90
31747;DHT22;18319;48.974;8.462;2023-01-13T00:12:04;11.10;99.90
31747;DHT22;18319;48.974;8.462;2023-01-13T00:14:32;11.10;99.90
31747;DHT22;18319;48.974;8.462;2023-01-13T00:16:59;11.00;99.90
31747;DHT22;18319;48.974;8.462;2023-01-13T00:19:26;11.00;99.90
31747;DHT22;18319;48.974;8.462;2023-01-13T00:21:53;11.00;99.90
31747;DHT22;18319;48.974;8.462;2023-01-13T00:24:19;11.00;99.90
31747;DHT22;18319;48.974;8.462;2023-01-13T00:26:48;11.00;99.90
31747;DHT22;18319;48.974;8.462;2023-01-13T00:29:15;11.10;99.90
31747;DHT22;18319;48.974;8.462;2023-01-13T00:31:41;11.00;99.90
31747;DHT22;18319;48.974;8.462;2023-01-13T00:34:08;10.90;99.90
31747;DHT22;18319;48.974;8.462;2023-01-13T00:36:35;10.90;99.90
31747;DHT22;18319;48.974;8.462;2023-01-13T00:39:02;10.90;99.90
31747;DHT22;18319;48.974;8.462;2023-01-13T00:41:29;10.90;99.90
31747;DHT22;18319;48.974;8.462;2023-01-13T00:44:21;10.90;99.90
31747;DHT22;18319;48.974;8.462;2023-01-13T00:46:47;10.90;99.90
31747;DHT22;18319;48.974;8.462;2023-01-13T00:49:14;10.90;99.90
31747;DHT22;18319;48.974;8.462;2023-01-13T00:51:40;10.90;99.90
31747;DHT22;18319;48.974;8.462;2023-01-13T00:54:07;10.90;99.90
31747;DHT22;18319;48.974;8.462;2023-01-13T00:56:34;10.80;99.90
31747;DHT22;18319;48.974;8.462;2023-01-13T00:59:01;10.80;99.90
31747;DHT22;18319;48.974;8.462;2023-01-13T01:01:29;10.70;99.90
31747;DHT22;18319;48.974;8.462;2023-01-13T01:03:56;10.70;99.90
31747;DHT22;18319;48.974;8.462;2023-01-13T01:06:24;10.60;99.90
31747;DHT22;18319;48.974;8.462;2023-01-13T01:08:52;10.60;99.90
31747;DHT22;18319;48.974;8.462;2023-01-13T01:11:24;10.60;99.90
31747;DHT22;18319;48.974;8.462;2023-01-13T01:13:53;10.60;99.90
31747;DHT22;18319;48.974;8.462;2023-01-13T01:16:24;10.60;99.90
31747;DHT22;18319;48.974;8.462;2023-01-13T01:18:53;10.60;99.90
31747;DHT22;18319;48.974;8.462;2023-01-13T01:21:22;10.50;99.90
31747;DHT22;18319;48.974;8.462;2023-01-13T01:23:49;10.50;99.90
31747;DHT22;18319;48.974;8.462;2023-01-13T01:26:18;10.60;99.90
31747;DHT22;18319;48.974;8.462;2023-01-13T01:28:45;10.60;99.90
31747;DHT22;18319;48.974;8.462;2023-01-13T01:31:14;10.50;99.90
31747;DHT22;18319;48.974;8.462;2023-01-13T01:33:41;10.50;99.90
31747;DHT22;18319;48.974;8.462;2023-01-13T01:36:11;10.60;99.90
31747;DHT22;18319;48.974;8.462;2023-01-13T01:38:38;10.60;99.90
31747;DHT22;18319;48.974;8.462;2023-01-13T01:41:05;10.60;99.90
31747;DHT22;18319;48.974;8.462;2023-01-13T01:43:51;10.50;99.90
31747;DHT22;18319;48.974;8.462;2023-01-13T01:46:33;10.50;99.90
31747;DHT22;18319;48.974;8.462;2023-01-13T01:49:09;10.50;99.90
31747;DHT22;18319;48.974;8.462;2023-01-13T01:51:41;10.50;99.90
31747;DHT22;18319;48.974;8.462;2023-01-13T01:54:11;10.50;99.90
31747;DHT22;18319;48.974;8.462;2023-01-13T01:56:40;10.50;99.90
31747;DHT22;18319;48.974;8.462;2023-01-13T01:59:08;10.50;99.90
31747;DHT22;18319;48.974;8.462;2023-01-13T02:01:36;10.50;99.90
31747;DHT22;18319;48.974;8.462;2023-01-13T02:04:08;10.60;99.90
31747;DHT22;18319;48.974;8.462;2023-01-13T02:06:38;10.60;99.90
31747;DHT22;18319;48.974;8.462;2023-01-13T02:09:06;10.60;99.90
31747;DHT22;18319;48.974;8.462;2023-01-13T02:11:34;10.60;99.90
31747;DHT22;18319;48.974;8.462;2023-01-13T02:14:24;10.60;99.90
31747;DHT22;18319;48.974;8.462;2023-01-13T02:17:09;10.60;99.90
31747;DHT22;18319;48.974;8.462;2023-01-13T02:20:07;10.60;99.90
31747;DHT22;18319;48.974;8.462;2023-01-13T02:26:19;10.50;99.90
31747;DHT22;18319;48.974;8.462;2023-01-13T02:29:00;10.50;99.90
31747;DHT22;18319;48.974;8.462;2023-01-13T02:31:57;10.50;99.90
31747;DHT22;18319;48.974;8.462;2023-01-13T02:34:34;10.50;99.90
31747;DHT22;18319;48.974;8.462;2023-01-13T02:37:06;10.50;99.90
31747;DHT22;18319;48.974;8.462;2023-01-13T02:39:37;10.50;99.90
31747;DHT22;18319;48.974;8.462;2023-01-13T02:42:10;10.50;99.90
31747;DHT22;18319;48.974;8.462;2023-01-13T02:45:05;10.50;99.90
31747;DHT22;18319;48.974;8.462;2023-01-13T02:47:39;10.50;99.90
31747;DHT22;18319;48.974;8.462;2023-01-13T02:50:10;10.50;99.90
31747;DHT22;18319;48.974;8.462;2023-01-13T02:52:40;10.50;99.90
31747;DHT22;18319;48.974;8.462;2023-01-13T02:55:12;10.60;99.90
31747;DHT22;18319;48.974;8.462;2023-01-13T02:57:41;10.60;99.90
31747;DHT22;18319;48.974;8.462;2023-01-13T03:00:10;10.60;99.90
31747;DHT22;18319;48.974;8.462;2023-01-13T03:02:39;10.60;99.90
31747;DHT22;18319;48.974;8.462;2023-01-13T03:05:06;10.60;99.90
31747;DHT22;18319;48.974;8.462;2023-01-13T03:08:10;10.70;99.90
31747;DHT22;18319;48.974;8.462;2023-01-13T03:10:49;10.70;99.90
31747;DHT22;18319;48.974;8.462;2023-01-13T03:13:37;10.80;99.90
31747;DHT22;18319;48.974;8.462;2023-01-13T03:16:15;10.80;99.90
31747;DHT22;18319;48.974;8.462;2023-01-13T03:19:05;10.80;99.90
31747;DHT22;18319;48.974;8.462;2023-01-13T03:21:39;10.80;99.90
31747;DHT22;18319;48.974;8.462;2023-01-13T03:24:12;10.90;99.90
31747;DHT22;18319;48.974;8.462;2023-01-13T03:26:46;10.90;99.90
31747;DHT22;18319;48.974;8.462;2023-01-13T03:29:17;10.90;99.90
31747;DHT22;18319;48.974;8.462;2023-01-13T03:31:57;11.00;99.90
31747;DHT22;18319;48.974;8.462;2023-01-13T03:34:29;11.00;99.90
31747;DHT22;18319;48.974;8.462;2023-01-13T03:37:01;11.00;99.90
31747;DHT22;18319;48.974;8.462;2023-01-13T03:39:32;11.00;99.90
31747;DHT22;18319;48.974;8.462;2023-01-13T03:42:03;11.00;99.90
31747;DHT22;18319;48.974;8.462;2023-01-13T03:44:34;11.00;99.90
31747;DHT22;18319;48.974;8.462;2023-01-13T03:47:06;11.00;99.90
31747;DHT22;18319;48.974;8.462;2023-01-13T03:49:42;11.00;99.90
31747;DHT22;18319;48.974;8.462;2023-01-13T03:52:16;11.10;99.90
31747;DHT22;18319;48.974;8.462;2023-01-13T03:54:48;11.10;99.90
31747;DHT22;18319;48.974;8.462;2023-01-13T03:57:19;11.10;99.90
31747;DHT22;18319;48.974;8.462;2023-01-13T03:59:51;11.10;99.90
31747;DHT22;18319;48.974;8.462;2023-01-13T04:02:27;11.00;99.90
31747;DHT22;18319;48.974;8.462;2023-01-13T04:04:58;11.10;99.90
31747;DHT22;18319;48.974;8.462;2023-01-13T04:07:32;11.10;99.90
31747;DHT22;18319;48.974;8.462;2023-01-13T04:10:04;11.10;99.90
31747;DHT22;18319;48.974;8.462;2023-01-13T04:12:33;11.10;99.90
31747;DHT22;18319;48.974;8.462;2023-01-13T04:15:16;11.10;99.90
31747;DHT22;18319;48.974;8.462;2023-01-13T04:17:44;11.10;99.90
31747;DHT22;18319;48.974;8.462;2023-01-13T04:20:13;11.10;99.90
31747;DHT22;18319;48.974;8.462;2023-01-13T04:22:39;11.10;99.90
31747;DHT22;18319;48.974;8.462;2023-01-13T04:25:07;11.10;99.90
31747;DHT22;18319;48.974;8.462;2023-01-13T04:27:39;11.10;99.90
31747;DHT22;18319;48.974;8.462;2023-01-13T04:30:07;11.10;99.90
31747;DHT22;18319;48.974;8.462;2023-01-13T04:32:34;11.10;99.90
31747;DHT22;18319;48.974;8.462;2023-01-13T04:35:00;11.10;99.90
31747;DHT22;18319;48.974;8.462;2023-01-13T04:37:32;11.10;99.90
31747;DHT22;18319;48.974;8.462;2023-01-13T04:39:58;11.10;99.90
31747;DHT22;18319;48.974;8.462;2023-01-13T04:42:25;11.10;99.90
31747;DHT22;18319;48.974;8.462;2023-01-13T04:44:53;11.10;99.90
31747;DHT22;18319;48.974;8.462;2023-01-13T04:47:21;11.10;99.90
31747;DHT22;18319;48.974;8.462;2023-01-13T04:49:47;11.20;99.90
31747;DHT22;18319;48.974;8.462;2023-01-13T04:52:14;11.20;99.90
31747;DHT22;18319;48.974;8.462;2023-01-13T04:54:42;11.10;99.90
31747;DHT22;18319;48.974;8.462;2023-01-13T04:57:13;11.10;99.90
31747;DHT22;18319;48.974;8.462;2023-01-13T04:59:40;11.20;99.90
31747;DHT22;18319;48.974;8.462;2023-01-13T05:02:07;11.20;99.90
31747;DHT22;18319;48.974;8.462;2023-01-13T05:04:44;11.10;99.90
31747;DHT22;18319;48.974;8.462;2023-01-13T05:07:10;11.10;99.90
31747;DHT22;18319;48.974;8.462;2023-01-13T05:09:37;11.70;99.90
31747;DHT22;18319;48.974;8.462;2023-01-13T05:12:05;11.20;99.90
31747;DHT22;18319;48.974;8.462;2023-01-13T05:14:52;11.10;99.90
31747;DHT22;18319;48.974;8.462;2023-01-13T05:17:36;11.10;99.90
31747;DHT22;18319;48.974;8.462;2023-01-13T05:20:04;11.10;99.90
31747;DHT22;18319;48.974;8.462;2023-01-13T05:25:16;11.10;99.90
31747;DHT22;18319;48.974;8.462;2023-01-13T05:27:52;11.10;99.90
31747;DHT22;18319;48.974;8.462;2023-01-13T05:30:20;11.10;99.90
31747;DHT22;18319;48.974;8.462;2023-01-13T05:32:49;11.10;99.90
31747;DHT22;18319;48.974;8.462;2023-01-13T05:35:16;11.10;99.90
31747;DHT22;18319;48.974;8.462;2023-01-13T05:37:43;11.10;99.90
31747;DHT22;18319;48.974;8.462;2023-01-13T05:40:12;11.10;99.90
31747;DHT22;18319;48.974;8.462;2023-01-13T05:43:03;11.10;99.90
31747;DHT22;18319;48.974;8.462;2023-01-13T05:45:47;11.10;99.90
31747;DHT22;18319;48.974;8.462;2023-01-13T05:48:15;11.00;99.90
31747;DHT22;18319;48.974;8.462;2023-01-13T05:50:42;11.10;99.90
31747;DHT22;18319;48.974;8.462;2023-01-13T05:53:10;11.00;99.90
31747;DHT22;18319;48.974;8.462;2023-01-13T05:55:38;11.00;99.90
31747;DHT22;18319;48.974;8.462;2023-01-13T05:58:06;11.00;99.90
31747;DHT22;18319;48.974;8.462;2023-01-13T06:00:34;11.00;99.90
31747;DHT22;18319;48.974;8.462;2023-01-13T06:03:01;11.00;99.90
31747;DHT22;18319;48.974;8.462;2023-01-13T06:05:28;11.00;99.90
31747;DHT22;18319;48.974;8.462;2023-01-13T06:07:57;11.00;99.90
31747;DHT22;18319;48.974;8.462;2023-01-13T06:10:24;11.00;99.90
31747;DHT22;18319;48.974;8.462;2023-01-13T06:12:51;11.00;99.90
31747;DHT22;18319;48.974;8.462;2023-01-13T06:15:20;11.00;99.90
31747;DHT22;18319;48.974;8.462;2023-01-13T06:17:47;11.10;99.90
31747;DHT22;18319;48.974;8.462;2023-01-13T06:20:14;11.10;99.90
31747;DHT22;18319;48.974;8.462;2023-01-13T06:22:43;11.10;99.90
31747;DHT22;18319;48.974;8.462;2023-01-13T06:25:16;11.10;99.90
31747;DHT22;18319;48.974;8.462;2023-01-13T06:27:45;11.10;99.90
31747;DHT22;18319;48.974;8.462;2023-01-13T06:30:12;11.10;99.90
31747;DHT22;18319;48.974;8.462;2023-01-13T06:32:43;11.00;99.90
31747;DHT22;18319;48.974;8.462;2023-01-13T06:35:13;11.00;99.90
31747;DHT22;18319;48.974;8.462;2023-01-13T06:37:41;10.90;99.90
31747;DHT22;18319;48.974;8.462;2023-01-13T06:40:10;10.80;99.90
31747;DHT22;18319;48.974;8.462;2023-01-13T06:42:38;10.80;99.90
31747;DHT22;18319;48.974;8.462;2023-01-13T06:45:24;10.80;99.90
31747;DHT22;18319;48.974;8.462;2023-01-13T06:47:53;10.80;99.90
31747;DHT22;18319;48.974;8.462;2023-01-13T06:50:23;10.80;99.90
31747;DHT22;18319;48.974;8.462;2023-01-13T06:52:50;10.80;99.90
31747;DHT22;18319;48.974;8.462;2023-01-13T06:55:17;10.80;99.90
31747;DHT22;18319;48.974;8.462;2023-01-13T06:57:52;10.80;99.90
31747;DHT22;18319;48.974;8.462;2023-01-13T07:00:20;10.80;99.90
31747;DHT22;18319;48.974;8.462;2023-01-13T07:02:48;10.90;99.90
31747;DHT22;18319;48.974;8.462;2023-01-13T07:05:17;10.90;99.90
31747;DHT22;18319;48.974;8.462;2023-01-13T07:07:44;10.90;99.90
31747;DHT22;18319;48.974;8.462;2023-01-13T07:10:16;10.80;99.90
31747;DHT22;18319;48.974;8.462;2023-01-13T07:12:47;10.80;99.90
31747;DHT22;18319;48.974;8.462;2023-01-13T07:15:32;10.70;99.90
31747;DHT22;18319;48.974;8.462;2023-01-13T07:18:01;10.70;99.90
31747;DHT22;18319;48.974;8.462;2023-01-13T07:20:30;10.80;99.90
31747;DHT22;18319;48.974;8.462;2023-01-13T07:22:57;10.70;99.90
31747;DHT22;18319;48.974;8.462;2023-01-13T07:25:24;10.80;99.90
31747;DHT22;18319;48.974;8.462;2023-01-13T07:27:54;10.80;99.90
31747;DHT22;18319;48.974;8.462;2023-01-13T07:30:22;10.80;99.90
31747;DHT22;18319;48.974;8.462;2023-01-13T07:32:49;10.80;99.90
31747;DHT22;18319;48.974;8.462;2023-01-13T07:35:16;10.70;99.90
31747;DHT22;18319;48.974;8.462;2023-01-13T07:37:48;10.60;99.90
31747;DHT22;18319;48.974;8.462;2023-01-13T07:40:16;10.40;99.90
31747;DHT22;18319;48.974;8.462;2023-01-13T07:42:42;10.30;99.90
31747;DHT22;18319;48.974;8.462;2023-01-13T07:45:27;10.20;99.90
31747;DHT22;18319;48.974;8.462;2023-01-13T07:47:54;10.10;99.90
31747;DHT22;18319;48.974;8.462;2023-01-13T07:50:21;10.00;99.90
31747;DHT22;18319;48.974;8.462;2023-01-13T07:52:50;9.90;99.90
31747;DHT22;18319;48.974;8.462;2023-01-13T07:55:22;9.80;99.90
31747;DHT22;18319;48.974;8.462;2023-01-13T07:57:49;9.80;99.90
31747;DHT22;18319;48.974;8.462;2023-01-13T08:00:16;9.70;99.90
31747;DHT22;18319;48.974;8.462;2023-01-13T08:39:55;8.90;99.90
31747;DHT22;18319;48.974;8.462;2023-01-13T08:42:23;8.90;99.90
31747;DHT22;18319;48.974;8.462;2023-01-13T08:44:51;9.00;99.90
31747;DHT22;18319;48.974;8.462;2023-01-13T09:02:05;9.30;99.90
31747;DHT22;18319;48.974;8.462;2023-01-13T09:04:35;9.40;99.90
31747;DHT22;18319;48.974;8.462;2023-01-13T09:07:03;9.40;99.90
31747;DHT22;18319;48.974;8.462;2023-01-13T09:09:30;9.40;99.90
31747;DHT22;18319;48.974;8.462;2023-01-13T09:11:57;9.40;99.90
31747;DHT22;18319;48.974;8.462;2023-01-13T09:14:44;9.40;99.90
31747;DHT22;18319;48.974;8.462;2023-01-13T09:17:12;9.40;99.90
31747;DHT22;18319;48.974;8.462;2023-01-13T09:24:33;9.50;99.90
31747;DHT22;18319;48.974;8.462;2023-01-13T09:37:08;9.60;99.90
31747;DHT22;18319;48.974;8.462;2023-01-13T09:42:09;9.80;99.90
31747;DHT22;18319;48.974;8.462;2023-01-13T09:44:59;9.80;99.90
31747;DHT22;18319;48.974;8.462;2023-01-13T09:55:02;9.90;99.90
31747;DHT22;18319;48.974;8.462;2023-01-13T09:57:33;9.90;99.90
31747;DHT22;18319;48.974;8.462;2023-01-13T10:00:03;9.90;99.90
31747;DHT22;18319;48.974;8.462;2023-01-13T10:02:52;10.00;99.90
31747;DHT22;18319;48.974;8.462;2023-01-13T10:05:31;10.20;99.90
31747;DHT22;18319;48.974;8.462;2023-01-13T10:08:05;10.40;99.90
31747;DHT22;18319;48.974;8.462;2023-01-13T10:10:37;10.50;99.90
31747;DHT22;18319;48.974;8.462;2023-01-13T10:13:14;10.60;99.90
31747;DHT22;18319;48.974;8.462;2023-01-13T10:16:04;10.60;99.90
31747;DHT22;18319;48.974;8.462;2023-01-13T10:18:44;10.50;99.90
31747;DHT22;18319;48.974;8.462;2023-01-13T10:29:02;10.20;99.90
31747;DHT22;18319;48.974;8.462;2023-01-13T10:34:00;10.20;99.90
31747;DHT22;18319;48.974;8.462;2023-01-13T10:36:28;10.00;99.90
31747;DHT22;18319;48.974;8.462;2023-01-13T10:39:07;10.00;99.90
31747;DHT22;18319;48.974;8.462;2023-01-13T10:41:34;10.00;99.90
31747;DHT22;18319;48.974;8.462;2023-01-13T10:46:35;10.00;99.90
31747;DHT22;18319;48.974;8.462;2023-01-13T10:49:26;10.00;99.90
31747;DHT22;18319;48.974;8.462;2023-01-13T10:54:22;10.10;99.90
31747;DHT22;18319;48.974;8.462;2023-01-13T10:57:14;10.30;99.90
31747;DHT22;18319;48.974;8.462;2023-01-13T10:59:47;10.30;99.90
31747;DHT22;18319;48.974;8.462;2023-01-13T11:02:19;10.30;99.90
31747;DHT22;18319;48.974;8.462;2023-01-13T11:05:02;10.60;99.90
31747;DHT22;18319;48.974;8.462;2023-01-13T11:07:31;10.50;99.90
31747;DHT22;18319;48.974;8.462;2023-01-13T11:12:36;10.60;99.90
31747;DHT22;18319;48.974;8.462;2023-01-13T11:17:40;10.60;99.90
31747;DHT22;18319;48.974;8.462;2023-01-13T11:25:15;10.50;99.90
31747;DHT22;18319;48.974;8.462;2023-01-13T11:27:51;10.50;99.90
31747;DHT22;18319;48.974;8.462;2023-01-13T11:30:25;10.50;99.90
31747;DHT22;18319;48.974;8.462;2023-01-13T11:33:16;10.40;99.90
31747;DHT22;18319;48.974;8.462;2023-01-13T11:38:24;10.30;99.90
31747;DHT22;18319;48.974;8.462;2023-01-13T11:43:31;10.40;99.90
31747;DHT22;18319;48.974;8.462;2023-01-13T11:46:00;10.40;99.90
31747;DHT22;18319;48.974;8.462;2023-01-13T11:48:30;10.30;99.90
31747;DHT22;18319;48.974;8.462;2023-01-13T11:51:03;10.20;99.90
31747;DHT22;18319;48.974;8.462;2023-01-13T11:53:46;10.00;99.90
31747;DHT22;18319;48.974;8.462;2023-01-13T12:04:33;9.40;99.90
31747;DHT22;18319;48.974;8.462;2023-01-13T12:07:13;9.30;99.90
31747;DHT22;18319;48.974;8.462;2023-01-13T12:09:51;9.30;99.90
31747;DHT22;18319;48.974;8.462;2023-01-13T12:12:34;9.20;99.90
31747;DHT22;18319;48.974;8.462;2023-01-13T12:15:30;9.10;99.90
31747;DHT22;18319;48.974;8.462;2023-01-13T12:18:19;9.00;99.90
31747;DHT22;18319;48.974;8.462;2023-01-13T12:21:00;9.00;99.90
31747;DHT22;18319;48.974;8.462;2023-01-13T12:23:34;9.10;99.90
31747;DHT22;18319;48.974;8.462;2023-01-13T12:28:40;9.20;99.90
31747;DHT22;18319;48.974;8.462;2023-01-13T12:33:46;9.30;99.90
31747;DHT22;18319;48.974;8.462;2023-01-13T12:36:25;9.40;99.90
31747;DHT22;18319;48.974;8.462;2023-01-13T12:38:56;9.20;99.90
31747;DHT22;18319;48.974;8.462;2023-01-13T12:52:11;9.10;99.90
31747;DHT22;18319;48.974;8.462;2023-01-13T13:00:22;9.10;99.90
31747;DHT22;18319;48.974;8.462;2023-01-13T13:03:18;9.20;99.90
31747;DHT22;18319;48.974;8.462;2023-01-13T13:05:53;9.20;99.90
31747;DHT22;18319;48.974;8.462;2023-01-13T13:11:36;9.10;99.90
31747;DHT22;18319;48.974;8.462;2023-01-13T13:14:58;8.90;99.90
31747;DHT22;18319;48.974;8.462;2023-01-13T13:17:42;8.60;99.90
31747;DHT22;18319;48.974;8.462;2023-01-13T13:36:43;8.30;99.90
31747;DHT22;18319;48.974;8.462;2023-01-13T13:42:11;8.30;99.90
31747;DHT22;18319;48.974;8.462;2023-01-13T13:44:56;8.30;99.90
31747;DHT22;18319;48.974;8.462;2023-01-13T13:47:42;8.20;99.90
31747;DHT22;18319;48.974;8.462;2023-01-13T13:52:41;8.10;99.90
31747;DHT22;18319;48.974;8.462;2023-01-13T13:55:16;8.00;99.90
31747;DHT22;18319;48.974;8.462;2023-01-13T13:57:47;7.90;99.90
31747;DHT22;18319;48.974;8.462;2023-01-13T14:00:21;8.00;99.90
31747;DHT22;18319;48.974;8.462;2023-01-13T14:02:50;8.10;99.90
31747;DHT22;18319;48.974;8.462;2023-01-13T14:05:20;8.20;99.90
31747;DHT22;18319;48.974;8.462;2023-01-13T14:07:48;8.30;99.90
31747;DHT22;18319;48.974;8.462;2023-01-13T14:12:46;8.50;99.90
31747;DHT22;18319;48.974;8.462;2023-01-13T14:38:00;8.00;99.90
31747;DHT22;18319;48.974;8.462;2023-01-13T14:40:40;8.00;99.90
31747;DHT22;18319;48.974;8.462;2023-01-13T14:43:13;7.90;99.90
31747;DHT22;18319;48.974;8.462;2023-01-13T14:55:47;7.40;99.90
31747;DHT22;18319;48.974;8.462;2023-01-13T14:58:24;7.40;99.90
31747;DHT22;18319;48.974;8.462;2023-01-13T15:08:49;7.20;99.90
31747;DHT22;18319;48.974;8.462;2023-01-13T15:11:21;7.20;99.90
31747;DHT22;18319;48.974;8.462;2023-01-13T15:13:54;7.10;99.90
31747;DHT22;18319;48.974;8.462;2023-01-13T16:11:31;6.40;99.90
31747;DHT22;18319;48.974;8.462;2023-01-13T16:21:22;6.20;99.90
31747;DHT22;18319;48.974;8.462;2023-01-13T16:33:46;6.20;99.90
31747;DHT22;18319;48.974;8.462;2023-01-13T16:43:35;6.30;99.90
31747;DHT22;18319;48.974;8.462;2023-01-13T17:22:59;8.20;99.90
31747;DHT22;18319;48.974;8.462;2023-01-13T17:47:38;7.30;99.90
31747;DHT22;18319;48.974;8.462;2023-01-13T17:52:33;7.10;99.90
31747;DHT22;18319;48.974;8.462;2023-01-13T17:55:00;7.10;99.90
31747;DHT22;18319;48.974;8.462;2023-01-13T17:57:27;7.30;99.90
31747;DHT22;18319;48.974;8.462;2023-01-13T17:59:55;7.00;99.90
31747;DHT22;18319;48.974;8.462;2023-01-13T18:02:23;6.90;99.90
31747;DHT22;18319;48.974;8.462;2023-01-13T18:04:50;6.80;99.90
31747;DHT22;18319;48.974;8.462;2023-01-13T18:07:17;6.90;99.90
31747;DHT22;18319;48.974;8.462;2023-01-13T18:12:11;7.10;99.90
31747;DHT22;18319;48.974;8.462;2023-01-13T18:27:54;7.00;99.90
31747;DHT22;18319;48.974;8.462;2023-01-13T18:40:11;6.60;99.90
31747;DHT22;18319;48.974;8.462;2023-01-13T18:42:38;6.60;99.90
31747;DHT22;18319;48.974;8.462;2023-01-13T18:45:19;6.60;99.90
31747;DHT22;18319;48.974;8.462;2023-01-13T18:50:21;6.70;99.90
31747;DHT22;18319;48.974;8.462;2023-01-13T18:52:49;6.80;99.90
31747;DHT22;18319;48.974;8.462;2023-01-13T18:55:16;6.90;99.90
31747;DHT22;18319;48.974;8.462;2023-01-13T19:34:50;7.60;99.90
31747;DHT22;18319;48.974;8.462;2023-01-13T19:37:19;7.50;99.90
31747;DHT22;18319;48.974;8.462;2023-01-13T19:39:46;7.40;99.90
31747;DHT22;18319;48.974;8.462;2023-01-13T19:42:14;7.30;99.90
31747;DHT22;18319;48.974;8.462;2023-01-13T19:44:58;7.20;99.90
31747;DHT22;18319;48.974;8.462;2023-01-13T19:47:47;7.10;99.90
31747;DHT22;18319;48.974;8.462;2023-01-13T19:50:14;7.00;99.90
31747;DHT22;18319;48.974;8.462;2023-01-13T20:12:27;6.60;99.90
31747;DHT22;18319;48.974;8.462;2023-01-13T20:14:55;6.60;99.90
31747;DHT22;18319;48.974;8.462;2023-01-13T20:17:22;6.60;99.90
31747;DHT22;18319;48.974;8.462;2023-01-13T20:19:52;6.70;99.90
31747;DHT22;18319;48.974;8.462;2023-01-13T20:29:46;6.90;99.90
31747;DHT22;18319;48.974;8.462;2023-01-13T20:54:44;7.20;99.90
31747;DHT22;18319;48.974;8.462;2023-01-13T20:57:11;7.20;99.90
31747;DHT22;18319;48.974;8.462;2023-01-13T21:04:34;7.10;99.90
31747;DHT22;18319;48.974;8.462;2023-01-13T21:07:01;7.10;99.90
31747;DHT22;18319;48.974;8.462;2023-01-13T21:22:36;6.80;99.90
31747;DHT22;18319;48.974;8.462;2023-01-13T21:30:00;7.00;99.90
31747;DHT22;18319;48.974;8.462;2023-01-13T21:32:32;7.10;99.90
31747;DHT22;18319;48.974;8.462;2023-01-13T21:50:27;7.20;99.90
31747;DHT22;18319;48.974;8.462;2023-01-13T21:52:58;7.20;99.90
31747;DHT22;18319;48.974;8.462;2023-01-13T21:55:25;7.20;99.90
31747;DHT22;18319;48.974;8.462;2023-01-13T22:17:38;6.30;99.90
31747;DHT22;18319;48.974;8.462;2023-01-13T22:30:05;6.10;99.90
31747;DHT22;18319;48.974;8.462;2023-01-13T22:42:25;5.90;99.90
31747;DHT22;18319;48.974;8.462;2023-01-13T23:04:32;5.70;99.90
31747;DHT22;18319;48.974;8.462;2023-01-13T23:16:49;5.80;99.90
31747;DHT22;18319;48.974;8.462;2023-01-13T23:19:17;5.80;99.90
31747;DHT22;18319;48.974;8.462;2023-01-13T23:24:11;5.80;99.90
31747;DHT22;18319;48.974;8.462;2023-01-13T23:36:29;5.80;99.90
